Time;durP1;ratioP1;P1;durP2;ratioP2;P2;SDS_P1;SDS_P2;PMS_P1;PMS_P2;Temp;Humidity;BMP_temperature;BMP_pressure;BME280_temperature;BME280_humidity;BME280_pressure;Samples;Min_cycle;Max_cycle;Signal;HPM_P1;HPM_P2
2022/07/29 00:01:19;;;;;;;12.00;2.30;;;;;;;53.46;9.48;100469.00;5065800;28;20067;-63
2022/07/29 00:03:45;;;;;;;8.93;2.35;;;;;;;54.07;9.83;100465.63;5062037;28;20032;-64
2022/07/29 00:06:13;;;;;;;18.23;2.70;;;;;;;50.22;12.58;100470.94;5055742;28;20032;-64
2022/07/29 00:08:39;;;;;;;14.95;2.72;;;;;;;50.68;12.36;100483.41;5056367;28;20479;-63
2022/07/29 00:11:06;;;;;;;12.77;2.75;;;;;;;49.50;12.26;100461.13;5056030;28;20041;-64
2022/07/29 00:13:33;;;;;;;12.43;2.53;;;;;;;49.75;12.37;100459.78;5061895;28;20103;-65
2022/07/29 00:16:00;;;;;;;14.88;2.67;;;;;;;51.90;11.35;100462.13;5053700;28;20029;-63
2022/07/29 00:18:26;;;;;;;7.28;2.30;;;;;;;51.05;11.80;100462.25;5059053;28;20021;-64
2022/07/29 00:20:53;;;;;;;7.53;2.13;;;;;;;50.37;11.86;100465.47;5054552;28;20065;-64
2022/07/29 00:23:20;;;;;;;8.95;2.60;;;;;;;50.85;11.48;100463.66;5058874;28;20021;-63
2022/07/29 00:25:46;;;;;;;13.20;2.53;;;;;;;50.12;11.63;100466.91;5072215;28;20066;-62
2022/07/29 00:28:13;;;;;;;10.00;2.20;;;;;;;49.63;12.46;100467.00;5091041;28;20024;-63
2022/07/29 00:30:42;;;;;;;14.65;2.53;;;;;;;49.18;12.54;100458.81;5089480;28;20024;-63
2022/07/29 00:33:09;;;;;;;20.85;2.60;;;;;;;48.84;13.19;100451.81;5090101;28;20016;-64
2022/07/29 00:35:43;;;;;;;19.52;3.30;;;;;;;49.70;12.58;100454.84;5088815;28;20508;-62
2022/07/29 00:38:15;;;;;;;12.55;2.45;;;;;;;49.58;12.25;100454.19;5091327;28;20362;-63
2022/07/29 00:40:42;;;;;;;10.68;2.55;;;;;;;47.03;14.32;100455.31;5071559;28;20043;-63
2022/07/29 00:43:09;;;;;;;33.75;3.83;;;;;;;47.86;14.01;100448.56;5074553;28;20152;-63
2022/07/29 00:45:36;;;;;;;10.25;2.17;;;;;;;47.09;14.83;100447.47;5075804;28;20095;-62
2022/07/29 00:48:04;;;;;;;17.10;2.90;;;;;;;48.06;14.00;100453.16;5074451;28;20028;-62
2022/07/29 00:50:32;;;;;;;15.38;2.90;;;;;;;47.84;14.20;100448.28;5088357;28;20109;-63
2022/07/29 00:52:59;;;;;;;12.98;2.70;;;;;;;47.19;14.65;100440.13;5088932;28;20024;-64
2022/07/29 00:55:26;;;;;;;10.65;2.55;;;;;;;45.92;15.79;100448.09;5088244;28;20139;-63
2022/07/29 00:57:53;;;;;;;18.92;2.95;;;;;;;46.14;15.60;100445.31;5077229;28;20050;-63
2022/07/29 01:00:24;;;;;;;14.75;2.60;;;;;;;45.60;15.92;100447.44;5074030;28;20047;-63
2022/07/29 01:02:51;;;;;;;16.17;3.00;;;;;;;46.92;14.48;100438.88;5073725;28;20024;-61
2022/07/29 01:05:20;;;;;;;9.32;2.42;;;;;;;46.19;15.67;100438.03;5073459;28;20067;-63
2022/07/29 01:07:51;;;;;;;10.00;2.78;;;;;;;45.57;15.96;100446.38;5076067;28;20107;-62
2022/07/29 01:10:19;;;;;;;10.52;2.45;;;;;;;45.12;16.26;100454.75;5075409;28;20495;-63
2022/07/29 01:12:49;;;;;;;8.90;2.47;;;;;;;45.77;16.19;100451.19;5073971;28;20039;-63
2022/07/29 01:15:16;;;;;;;11.07;2.90;;;;;;;44.76;16.72;100455.50;5074206;28;20115;-63
2022/07/29 01:17:48;;;;;;;12.80;2.83;;;;;;;44.55;16.98;100458.47;5073792;28;20020;-63
2022/07/29 01:21:02;;;;;;;9.93;3.22;;;;;;;45.47;15.99;100453.66;5074036;28;20028;-62
2022/07/29 01:24:06;;;;;;;12.57;2.65;;;;;;;44.24;17.04;100458.38;5073793;28;20071;-63
2022/07/29 01:26:42;;;;;;;8.32;2.60;;;;;;;44.46;16.91;100467.19;5072907;28;20036;-62
2022/07/29 01:29:29;;;;;;;8.55;2.67;;;;;;;44.95;16.02;100461.66;5072386;28;20025;-64
2022/07/29 01:32:02;;;;;;;11.90;2.53;;;;;;;44.98;16.26;100455.69;5074038;28;20036;-65
2022/07/29 01:35:09;;;;;;;14.02;2.70;;;;;;;44.25;16.86;100459.94;5073648;28;20031;-63
2022/07/29 01:37:54;;;;;;;14.88;2.53;;;;;;;43.87;17.20;100458.22;5071734;28;20048;-64
2022/07/29 01:40:41;;;;;;;22.10;2.60;;;;;;;43.13;19.08;100464.97;5072520;28;20086;-63
2022/07/29 01:43:16;;;;;;;17.27;2.72;;;;;;;42.43;19.54;100469.72;5081084;28;20035;-63
2022/07/29 01:45:53;;;;;;;22.10;2.90;;;;;;;41.50;20.54;100466.00;5078665;28;20041;-64
2022/07/29 01:48:32;;;;;;;17.13;2.67;;;;;;;41.31;20.74;100484.50;5076975;28;20655;-64
2022/07/29 01:51:14;;;;;;;19.48;2.60;;;;;;;40.96;21.61;100493.50;5074795;28;20540;-64
2022/07/29 01:53:50;;;;;;;15.13;2.30;;;;;;;40.92;21.21;100492.06;5077891;28;20093;-64
2022/07/29 01:56:20;;;;;;;15.77;2.50;;;;;;;41.08;21.07;100497.41;5074554;28;20028;-64
2022/07/29 01:58:49;;;;;;;13.38;2.40;;;;;;;40.78;21.62;100504.13;5075398;28;20076;-63
2022/07/29 02:01:18;;;;;;;11.95;2.40;;;;;;;40.61;22.08;100503.69;5073838;28;20033;-63
2022/07/29 02:03:46;;;;;;;14.73;2.38;;;;;;;40.40;22.42;100503.44;5082144;28;20428;-64
2022/07/29 02:06:18;;;;;;;15.05;2.30;;;;;;;40.38;22.34;100505.91;5081302;28;20029;-64
2022/07/29 02:08:47;;;;;;;14.43;2.50;;;;;;;40.16;22.17;100508.13;5075234;28;20486;-63
2022/07/29 02:11:14;;;;;;;20.05;2.45;;;;;;;39.68;23.26;100504.91;5086754;28;20489;-62
2022/07/29 02:13:42;;;;;;;17.00;2.90;;;;;;;39.51;22.90;100515.75;5073426;28;20032;-63
2022/07/29 02:16:10;;;;;;;13.13;2.00;;;;;;;39.16;23.38;100518.00;5071488;28;20067;-62
2022/07/29 02:18:43;;;;;;;13.35;2.08;;;;;;;38.97;23.33;100522.78;5073219;28;20040;-63
2022/07/29 02:21:11;;;;;;;13.60;2.30;;;;;;;38.89;23.91;100524.28;5073406;28;20522;-63
2022/07/29 02:23:39;;;;;;;11.00;1.80;;;;;;;38.60;24.04;100527.41;5075921;28;20023;-63
2022/07/29 02:26:08;;;;;;;12.75;2.10;;;;;;;38.47;24.44;100521.00;5075314;28;20028;-62
2022/07/29 02:28:36;;;;;;;13.07;1.92;;;;;;;38.29;24.86;100533.00;5076407;28;20035;-62
2022/07/29 02:31:03;;;;;;;9.23;1.98;;;;;;;38.24;24.90;100529.94;5074088;28;20035;-63
2022/07/29 02:33:31;;;;;;;10.25;1.92;;;;;;;38.22;24.98;100547.44;5080872;28;20032;-64
2022/07/29 02:35:59;;;;;;;10.90;2.38;;;;;;;38.07;25.39;100543.50;5081355;28;20033;-63
2022/07/29 02:39:14;;;;;;;11.35;1.90;;;;;;;38.05;25.61;100551.66;5075248;28;20025;-63
2022/07/29 02:41:22;;;;;;;16.65;2.35;;;;;;;37.85;26.06;100551.16;5067859;28;20403;-63
2022/07/29 02:43:53;;;;;;;;;;;;;;;37.74;26.66;100557.19;5075417;28;20029;-63
2022/07/29 02:46:26;;;;;;;18.17;2.40;;;;;;;37.60;27.35;100563.31;5074789;28;19924;-64
2022/07/29 02:49:16;;;;;;;15.93;2.35;;;;;;;37.55;27.68;100566.72;5073302;28;20411;-63
2022/07/29 02:52:08;;;;;;;14.57;2.58;;;;;;;37.39;28.01;100565.59;5074580;28;20071;-63
2022/07/29 02:54:49;;;;;;;8.85;1.80;;;;;;;37.27;27.96;100569.19;5083017;28;20033;-63
2022/07/29 02:57:55;;;;;;;14.10;2.22;;;;;;;37.18;28.31;100581.19;5073174;28;20510;-62
2022/07/29 03:00:27;;;;;;;10.23;2.30;;;;;;;37.12;28.27;100580.16;5074069;28;20072;-62
2022/07/29 03:02:56;;;;;;;17.58;2.20;;;;;;;37.10;27.80;100587.50;5072948;28;20566;-62
2022/07/29 03:05:23;;;;;;;15.50;2.42;;;;;;;37.10;28.00;100587.50;5074951;28;20036;-62
2022/07/29 03:07:58;;;;;;;15.55;2.20;;;;;;;37.01;28.30;100590.22;5073042;28;20051;-61
2022/07/29 03:10:29;;;;;;;19.05;2.38;;;;;;;36.95;27.72;100589.97;5084926;28;20040;-63
2022/07/29 03:12:57;;;;;;;9.50;2.42;;;;;;;36.89;27.95;100594.59;5076290;28;20045;-62
2022/07/29 03:15:25;;;;;;;13.48;2.47;;;;;;;36.85;27.43;100602.44;5076611;28;20020;-62
2022/07/29 03:17:53;;;;;;;20.30;2.83;;;;;;;36.82;27.75;100609.78;5086822;28;20056;-63
2022/07/29 03:20:20;;;;;;;9.85;2.05;;;;;;;36.78;28.09;100623.19;5077008;28;20487;-62
2022/07/29 03:22:47;;;;;;;13.40;2.50;;;;;;;36.61;28.49;100621.66;5075677;28;20120;-62
2022/07/29 03:25:16;;;;;;;19.00;3.40;;;;;;;36.58;28.49;100622.56;5076105;28;20020;-63
2022/07/29 03:27:43;;;;;;;13.80;2.67;;;;;;;36.49;28.89;100630.91;5077335;28;20035;-62
2022/07/29 03:30:12;;;;;;;17.83;3.30;;;;;;;36.58;28.38;100633.88;5085684;28;20024;-62
2022/07/29 03:32:39;;;;;;;18.77;3.67;;;;;;;36.43;28.60;100641.97;5084789;28;20028;-62
2022/07/29 03:35:06;;;;;;;23.35;3.67;;;;;;;36.41;28.69;100635.16;5082955;28;20386;-65
2022/07/29 03:37:33;;;;;;;19.50;3.10;;;;;;;36.27;28.85;100631.44;5082613;28;20063;-64
2022/07/29 03:40:03;;;;;;;12.95;3.03;;;;;;;36.31;28.77;100634.19;5079350;28;20036;-64
2022/07/29 03:42:33;;;;;;;10.38;2.92;;;;;;;36.30;28.87;100644.69;5079712;28;20028;-62
2022/07/29 03:45:05;;;;;;;11.13;2.30;;;;;;;36.24;28.99;100640.78;5080506;28;20028;-62
2022/07/29 03:47:35;;;;;;;14.27;2.80;;;;;;;36.10;29.25;100631.91;5079315;28;20060;-62
2022/07/29 03:50:06;;;;;;;10.23;2.38;;;;;;;36.11;28.66;100653.28;5081753;28;20096;-62
2022/07/29 03:52:34;;;;;;;7.80;2.63;;;;;;;36.17;28.63;100649.47;5081886;28;20115;-62
2022/07/29 03:55:02;;;;;;;9.75;2.90;;;;;;;36.08;28.52;100657.78;5081560;28;20374;-62
2022/07/29 03:57:31;;;;;;;17.02;2.88;;;;;;;36.07;28.20;100650.53;5080021;28;20035;-63
2022/07/29 04:00:00;;;;;;;12.50;3.00;;;;;;;36.11;28.52;100647.63;5079210;28;20021;-63
2022/07/29 04:02:31;;;;;;;13.48;2.72;;;;;;;36.01;28.86;100644.63;5084872;28;20089;-63
2022/07/29 04:04:58;;;;;;;10.68;2.63;;;;;;;35.98;28.61;100651.16;5074297;28;20042;-64
2022/07/29 04:07:25;;;;;;;18.85;3.25;;;;;;;35.90;28.53;100660.25;5079045;28;20078;-64
2022/07/29 04:09:52;;;;;;;16.40;3.35;;;;;;;35.86;29.05;100665.19;5077119;28;20130;-64
2022/07/29 04:12:20;;;;;;;17.65;3.20;;;;;;;35.76;29.04;100657.75;5078574;28;20639;-64
2022/07/29 04:14:48;;;;;;;13.95;3.13;;;;;;;35.79;28.85;100654.03;5078524;28;20025;-64
2022/07/29 04:17:15;;;;;;;15.95;3.33;;;;;;;35.68;29.17;100649.41;5079307;28;20024;-64
2022/07/29 04:19:41;;;;;;;16.08;2.78;;;;;;;35.71;29.18;100653.38;5079706;28;20036;-64
2022/07/29 04:22:08;;;;;;;16.33;2.80;;;;;;;35.72;28.96;100650.13;5079661;28;20021;-64
2022/07/29 04:24:35;;;;;;;22.38;3.55;;;;;;;35.61;29.75;100632.63;5079131;28;20108;-65
2022/07/29 04:27:01;;;;;;;20.17;3.00;;;;;;;35.63;29.42;100657.63;5079454;28;20432;-64
2022/07/29 04:29:28;;;;;;;17.60;4.13;;;;;;;35.58;29.13;100658.94;5079800;28;20024;-64
2022/07/29 04:31:55;;;;;;;25.15;3.70;;;;;;;35.56;29.39;100667.06;5078977;28;20069;-64
2022/07/29 04:34:21;;;;;;;25.40;3.88;;;;;;;35.45;29.33;100658.03;5078528;28;20027;-64
2022/07/29 04:36:48;;;;;;;25.60;4.03;;;;;;;35.47;29.02;100664.03;5078997;28;20714;-63
2022/07/29 04:39:15;;;;;;;16.10;3.60;;;;;;;35.45;29.17;100657.22;5079047;28;20052;-64
2022/07/29 04:41:41;;;;;;;16.05;3.28;;;;;;;35.47;28.67;100660.41;5079630;28;20462;-64
2022/07/29 04:44:08;;;;;;;23.98;3.67;;;;;;;35.50;29.22;100665.19;5077993;28;20028;-64
2022/07/29 04:46:35;;;;;;;18.35;3.15;;;;;;;35.45;29.04;100660.84;5079028;28;20024;-64
2022/07/29 04:49:03;;;;;;;16.90;3.15;;;;;;;35.40;28.87;100661.38;5079592;28;20032;-65
2022/07/29 04:51:29;;;;;;;15.02;2.70;;;;;;;35.35;28.66;100659.03;5079463;28;20017;-63
2022/07/29 04:53:56;;;;;;;16.27;3.08;;;;;;;35.16;28.60;100640.03;5079005;28;20024;-63
2022/07/29 04:56:23;;;;;;;15.20;2.80;;;;;;;35.22;28.68;100663.75;5079321;28;20478;-63
2022/07/29 04:58:50;;;;;;;10.98;2.45;;;;;;;35.25;29.06;100680.63;5078995;28;20048;-64
2022/07/29 05:01:17;;;;;;;10.85;2.58;;;;;;;35.11;29.22;100676.06;5076822;28;20021;-65
2022/07/29 05:03:45;;;;;;;13.10;2.60;;;;;;;35.06;29.49;100685.03;5074026;28;20032;-64
2022/07/29 05:06:11;;;;;;;11.52;2.33;;;;;;;34.95;30.12;100672.34;5072667;28;20024;-64
2022/07/29 05:08:38;;;;;;;8.05;2.30;;;;;;;34.89;30.13;100682.56;5072892;28;20182;-64
2022/07/29 05:11:05;;;;;;;14.43;1.70;;;;;;;34.77;30.19;100692.44;5073778;28;20105;-64
2022/07/29 05:13:32;;;;;;;9.63;1.92;;;;;;;34.67;29.31;100684.97;5074261;28;20031;-64
2022/07/29 05:15:59;;;;;;;7.55;1.88;;;;;;;34.70;29.36;100686.91;5083049;28;20021;-65
2022/07/29 05:18:28;;;;;;;8.73;1.80;;;;;;;34.69;28.86;100688.16;5075931;28;20051;-62
2022/07/29 05:20:54;;;;;;;4.97;1.52;;;;;;;34.78;28.39;100688.38;5084280;28;20060;-62
2022/07/29 05:23:21;;;;;;;6.18;1.70;;;;;;;34.63;28.72;100687.03;5076988;28;20048;-62
2022/07/29 05:25:48;;;;;;;13.10;1.80;;;;;;;34.49;28.88;100690.94;5077745;28;20032;-62
2022/07/29 05:28:14;;;;;;;9.48;1.70;;;;;;;34.65;28.86;100693.03;5080668;28;20049;-63
2022/07/29 05:30:41;;;;;;;9.07;1.60;;;;;;;34.48;29.53;100694.97;5081682;28;20107;-62
2022/07/29 05:33:08;;;;;;;9.93;1.80;;;;;;;34.39;29.36;100689.88;5086927;28;20383;-63
2022/07/29 05:35:36;;;;;;;11.38;1.80;;;;;;;34.42;30.16;100683.38;5086068;28;20020;-62
2022/07/29 05:38:04;;;;;;;18.00;1.83;;;;;;;34.35;30.83;100683.50;5081914;28;20505;-62
2022/07/29 05:40:30;;;;;;;10.55;1.73;;;;;;;34.41;31.53;100683.78;5079988;28;20064;-62
2022/07/29 05:42:57;;;;;;;7.00;1.73;;;;;;;34.27;32.14;100686.81;5085465;28;20481;-62
2022/07/29 05:45:24;;;;;;;7.72;1.73;;;;;;;34.18;33.08;100676.09;5074490;28;20037;-62
2022/07/29 05:47:50;;;;;;;8.68;1.88;;;;;;;34.12;33.07;100678.59;5087441;28;20064;-62
2022/07/29 05:50:17;;;;;;;11.48;1.88;;;;;;;33.97;33.88;100679.25;5080264;28;20020;-62
2022/07/29 05:52:44;;;;;;;11.18;1.90;;;;;;;33.92;34.12;100689.78;5078649;28;20403;-62
2022/07/29 05:55:11;;;;;;;8.65;1.95;;;;;;;33.79;34.57;100680.28;5085020;28;20115;-62
2022/07/29 05:57:37;;;;;;;9.48;1.75;;;;;;;33.74;36.14;100686.38;5071540;28;20381;-62
2022/07/29 06:00:05;;;;;;;12.38;2.25;;;;;;;33.71;36.76;100695.69;5081528;28;20017;-62
2022/07/29 06:02:38;;;;;;;12.90;2.20;;;;;;;33.68;36.55;100684.47;5079497;28;20146;-62
2022/07/29 06:05:05;;;;;;;12.43;2.40;;;;;;;33.52;37.36;100682.25;5073126;28;20139;-62
2022/07/29 06:07:32;;;;;;;9.75;1.95;;;;;;;33.59;37.94;100685.00;5084689;28;20050;-61
2022/07/29 06:09:59;;;;;;;14.10;2.40;;;;;;;33.60;37.73;100678.16;5077405;28;20043;-61
2022/07/29 06:12:26;;;;;;;11.45;2.30;;;;;;;33.34;38.94;100671.22;5082534;28;20063;-62
2022/07/29 06:14:52;;;;;;;11.27;2.53;;;;;;;33.40;38.52;100685.66;5081643;28;20033;-61
2022/07/29 06:17:19;;;;;;;17.92;2.78;;;;;;;33.43;38.85;100684.81;5083143;28;20017;-62
2022/07/29 06:19:46;;;;;;;12.00;2.45;;;;;;;33.32;38.64;100690.53;5079408;28;20127;-62
2022/07/29 06:22:14;;;;;;;32.88;3.00;;;;;;;33.39;38.63;100692.50;5081923;28;20020;-63
2022/07/29 06:24:43;;;;;;;29.63;3.63;;;;;;;33.35;39.24;100687.72;5080473;28;20044;-64
2022/07/29 06:27:11;;;;;;;16.08;3.53;;;;;;;33.41;39.25;100687.25;5082186;28;20024;-64
2022/07/29 06:29:38;;;;;;;13.77;2.65;;;;;;;33.36;39.04;100696.97;5081774;28;20075;-64
2022/07/29 06:32:05;;;;;;;13.73;2.70;;;;;;;33.42;38.28;100691.69;5080823;28;20471;-62
2022/07/29 06:34:31;;;;;;;13.15;2.88;;;;;;;33.40;39.07;100697.72;5081465;28;20047;-62
2022/07/29 06:36:58;;;;;;;14.60;2.55;;;;;;;33.31;40.09;100705.84;5085711;28;20479;-63
2022/07/29 06:39:25;;;;;;;13.63;2.05;;;;;;;33.32;39.76;100690.53;5084547;28;20033;-62
2022/07/29 06:41:51;;;;;;;11.60;2.50;;;;;;;33.38;39.80;100702.97;5085578;28;20020;-62
2022/07/29 06:44:24;;;;;;;11.65;2.40;;;;;;;33.33;39.56;100706.25;5086516;28;20044;-62
2022/07/29 06:46:51;;;;;;;131.23;6.30;;;;;;;33.33;40.25;100701.41;5085031;28;20364;-63
2022/07/29 06:49:19;;;;;;;13.10;2.90;;;;;;;33.27;40.10;100707.91;5084707;28;20016;-65
2022/07/29 06:51:46;;;;;;;11.73;4.50;;;;;;;33.27;40.30;100705.91;5086543;28;20065;-64
2022/07/29 06:54:15;;;;;;;21.10;5.30;;;;;;;33.14;41.36;100696.38;5085406;28;20021;-66
2022/07/29 06:56:42;;;;;;;15.43;6.00;;;;;;;33.19;41.38;100704.38;5084373;28;20036;-65
2022/07/29 06:59:10;;;;;;;16.55;6.20;;;;;;;33.12;41.14;100704.47;5086029;28;20028;-62
2022/07/29 07:01:42;;;;;;;13.25;5.47;;;;;;;33.15;41.10;100714.88;5085822;28;20498;-62
2022/07/29 07:04:11;;;;;;;18.80;5.80;;;;;;;33.10;41.53;100712.53;5081243;28;20028;-62
2022/07/29 07:06:37;;;;;;;14.13;5.55;;;;;;;33.09;41.71;100727.84;5084773;28;20035;-62
2022/07/29 07:09:05;;;;;;;10.88;4.90;;;;;;;33.12;41.54;100721.38;5084747;28;20036;-62
2022/07/29 07:11:32;;;;;;;15.52;5.63;;;;;;;33.15;41.75;100728.97;5084793;28;20035;-62
2022/07/29 07:13:59;;;;;;;18.60;5.65;;;;;;;33.11;41.75;100728.22;5084348;28;20107;-62
2022/07/29 07:16:26;;;;;;;15.07;4.85;;;;;;;33.09;41.64;100729.84;5085976;28;20046;-62
2022/07/29 07:18:52;;;;;;;26.10;5.60;;;;;;;33.05;41.87;100727.09;5083513;28;20111;-62
2022/07/29 07:21:19;;;;;;;19.77;4.10;;;;;;;33.10;42.19;100739.91;5092496;28;20031;-61
2022/07/29 07:23:46;;;;;;;12.02;4.13;;;;;;;33.07;42.63;100741.53;5094344;28;20486;-61
2022/07/29 07:26:13;;;;;;;9.90;3.80;;;;;;;33.03;43.01;100733.09;5095579;28;20032;-61
2022/07/29 07:28:40;;;;;;;8.70;3.28;;;;;;;32.96;42.97;100740.84;5094072;28;20052;-62
2022/07/29 07:31:07;;;;;;;8.68;3.03;;;;;;;32.95;42.38;100747.69;5078135;28;20025;-61
2022/07/29 07:33:33;;;;;;;13.40;3.20;;;;;;;32.93;42.42;100741.69;5075278;28;20043;-61
2022/07/29 07:36:00;;;;;;;11.07;3.40;;;;;;;32.80;42.22;100743.38;5075080;28;20028;-62
2022/07/29 07:38:27;;;;;;;12.70;2.92;;;;;;;32.82;42.60;100752.25;5073953;28;20032;-62
2022/07/29 07:40:53;;;;;;;14.05;2.90;;;;;;;32.75;42.22;100744.63;5074934;28;20094;-62
2022/07/29 07:43:21;;;;;;;12.85;2.97;;;;;;;32.71;42.83;100747.50;5073822;28;20094;-62
2022/07/29 07:45:48;;;;;;;11.88;2.28;;;;;;;32.67;42.36;100759.97;5074885;28;20028;-62
2022/07/29 07:48:14;;;;;;;12.13;2.15;;;;;;;32.68;42.79;100770.03;5074066;28;20032;-62
2022/07/29 07:50:41;;;;;;;10.60;2.20;;;;;;;32.53;43.02;100769.34;5073613;28;20430;-62
2022/07/29 07:53:08;;;;;;;12.75;2.55;;;;;;;32.51;43.55;100771.78;5074847;28;20055;-62
2022/07/29 07:55:40;;;;;;;11.52;2.70;;;;;;;32.44;45.57;100761.38;5074772;28;20505;-62
2022/07/29 07:58:07;;;;;;;9.65;2.70;;;;;;;32.36;46.00;100764.66;5074629;28;20033;-62
2022/07/29 08:00:34;;;;;;;8.35;2.08;;;;;;;32.30;46.97;100761.47;5074458;28;20029;-62
2022/07/29 08:03:00;;;;;;;13.95;2.95;;;;;;;32.20;46.63;100762.31;5074684;28;20044;-62
2022/07/29 08:05:27;;;;;;;6.47;2.22;;;;;;;32.24;46.56;100768.72;5074550;28;20048;-61
2022/07/29 08:07:54;;;;;;;10.88;2.78;;;;;;;32.23;46.41;100771.94;5074276;28;20502;-63
2022/07/29 08:13:11;;;;;;;9.35;2.45;;;;;;;32.14;46.48;100770.41;5074616;28;20040;-63
2022/07/29 08:15:40;;;;;;;12.35;2.65;;;;;;;32.10;46.38;100775.22;5074233;28;20043;-61
2022/07/29 08:18:07;;;;;;;6.47;2.28;;;;;;;32.08;47.44;100772.03;5074207;28;20107;-61
2022/07/29 08:20:35;;;;;;;8.88;2.28;;;;;;;32.11;47.35;100787.28;5074040;28;20082;-61
2022/07/29 08:23:04;;;;;;;12.77;2.42;;;;;;;32.11;47.49;100784.47;5072856;28;20052;-61
2022/07/29 08:25:30;;;;;;;6.60;2.10;;;;;;;32.09;47.83;100796.13;5074080;28;20032;-61
2022/07/29 08:27:57;;;;;;;8.40;2.03;;;;;;;32.06;48.47;100791.31;5072854;28;20086;-61
2022/07/29 08:30:24;;;;;;;9.57;2.22;;;;;;;32.09;47.63;100789.69;5074226;28;20119;-61
2022/07/29 08:32:52;;;;;;;15.02;2.40;;;;;;;32.06;47.91;100785.69;5073906;28;20478;-61
2022/07/29 08:35:20;;;;;;;5.38;1.98;;;;;;;32.14;47.52;100787.28;5072787;28;20029;-61
2022/07/29 08:37:47;;;;;;;15.23;2.72;;;;;;;32.16;46.23;100782.03;5073854;28;20462;-61
2022/07/29 08:40:14;;;;;;;11.35;2.50;;;;;;;32.04;46.34;100771.25;5073769;28;20051;-61
2022/07/29 08:42:41;;;;;;;8.35;2.10;;;;;;;32.01;46.26;100774.09;5072520;28;20031;-63
2022/07/29 08:45:09;;;;;;;4.50;1.90;;;;;;;32.06;45.82;100768.03;5073911;28;20383;-61
2022/07/29 08:47:39;;;;;;;9.85;2.13;;;;;;;32.00;45.01;100762.03;5073589;28;20027;-61
2022/07/29 08:50:09;;;;;;;8.18;2.40;;;;;;;31.98;45.32;100756.03;5073613;28;20036;-62
2022/07/29 08:52:38;;;;;;;10.90;2.38;;;;;;;32.01;45.00;100758.03;5073604;28;20056;-62
2022/07/29 08:55:07;;;;;;;13.20;2.30;;;;;;;31.98;45.30;100756.03;5073644;28;20060;-62
2022/07/29 08:57:34;;;;;;;17.50;3.05;;;;;;;32.02;45.27;100756.81;5073441;28;20498;-62
2022/07/29 09:00:04;;;;;;;12.35;2.45;;;;;;;31.91;46.13;100756.06;5073502;28;20081;-62
2022/07/29 09:02:39;;;;;;;10.75;2.45;;;;;;;31.90;45.78;100756.47;5073601;28;20119;-62
2022/07/29 09:05:06;;;;;;;11.10;2.80;;;;;;;31.91;44.96;100752.44;5073494;28;20150;-61
2022/07/29 09:07:33;;;;;;;13.50;2.65;;;;;;;31.94;44.96;100757.25;5073077;28;20044;-62
2022/07/29 09:10:01;;;;;;;9.93;2.53;;;;;;;31.82;45.82;100758.53;5073454;28;20491;-62
2022/07/29 09:12:31;;;;;;;14.93;2.60;;;;;;;31.76;46.21;100754.53;5073404;28;20112;-62
2022/07/29 09:14:58;;;;;;;9.32;2.80;;;;;;;31.76;45.72;100766.56;5073098;28;20036;-62
2022/07/29 09:17:49;;;;;;;8.90;3.00;;;;;;;31.80;45.81;100772.19;5073330;28;20032;-62
2022/07/29 09:20:19;;;;;;;11.65;3.28;;;;;;;31.78;46.07;100763.38;5073086;28;20120;-62
2022/07/29 09:22:48;;;;;;;10.70;2.78;;;;;;;31.75;46.39;100776.19;5073112;28;20157;-62
2022/07/29 09:25:36;;;;;;;13.68;3.00;;;;;;;31.71;46.35;100774.59;5072988;28;20523;-62
2022/07/29 09:28:16;;;;;;;9.93;2.75;;;;;;;31.67;46.38;100777.44;5073197;28;20124;-62
2022/07/29 09:31:01;;;;;;;9.30;2.53;;;;;;;31.65;46.45;100767.81;5073174;28;20033;-62
2022/07/29 09:33:38;;;;;;;9.07;2.53;;;;;;;31.64;46.90;100769.00;5073133;28;20155;-62
2022/07/29 09:36:09;;;;;;;9.00;2.60;;;;;;;31.62;46.65;100771.44;5072806;28;20043;-62
2022/07/29 09:38:39;;;;;;;9.02;2.72;;;;;;;31.67;46.69;100776.63;5073000;28;20112;-62
2022/07/29 09:41:08;;;;;;;7.97;2.88;;;;;;;31.71;46.09;100769.78;5072963;28;20502;-61
2022/07/29 09:43:35;;;;;;;8.80;2.30;;;;;;;31.65;46.45;100768.59;5073120;28;20386;-62
2022/07/29 09:46:14;;;;;;;6.78;2.50;;;;;;;31.60;46.59;100751.34;5072989;28;20017;-62
2022/07/29 09:48:41;;;;;;;8.30;2.40;;;;;;;31.66;47.03;100766.59;5073002;28;20107;-62
2022/07/29 09:51:20;;;;;;;9.18;2.38;;;;;;;31.67;46.72;100765.38;5072882;28;20048;-62
2022/07/29 09:53:47;;;;;;;7.45;2.20;;;;;;;31.64;46.40;100775.44;5072715;28;20549;-63
2022/07/29 09:56:14;;;;;;;11.70;2.33;;;;;;;31.67;45.86;100769.00;5072997;28;20099;-62
2022/07/29 09:58:40;;;;;;;7.78;2.13;;;;;;;31.69;45.32;100768.59;5072794;28;20089;-63
2022/07/29 10:01:07;;;;;;;7.10;2.25;;;;;;;31.70;45.38;100764.56;5073113;28;20024;-63
2022/07/29 10:03:51;;;;;;;7.57;1.98;;;;;;;31.78;44.04;100777.44;5072968;28;20195;-63
2022/07/29 10:06:18;;;;;;;6.07;2.00;;;;;;;31.76;43.17;100763.75;5072865;28;20032;-62
2022/07/29 10:08:45;;;;;;;5.82;2.03;;;;;;;31.84;43.49;100779.38;5071530;28;20082;-62
2022/07/29 10:11:14;;;;;;;6.95;2.00;;;;;;;31.77;43.16;100781.41;5075604;28;20035;-62
2022/07/29 10:13:42;;;;;;;4.25;1.70;;;;;;;31.73;43.21;100775.00;5076726;28;20020;-62
2022/07/29 10:16:10;;;;;;;9.10;1.90;;;;;;;31.71;42.93;100775.41;5076745;28;20032;-62
2022/07/29 10:18:39;;;;;;;5.07;1.75;;;;;;;31.76;41.98;100785.44;5076773;28;20029;-62
2022/07/29 10:21:06;;;;;;;5.38;2.10;;;;;;;31.75;42.48;100792.25;5076807;28;20072;-62
2022/07/29 10:23:34;;;;;;;10.45;2.70;;;;;;;31.69;42.36;100788.25;5076479;28;20024;-62
2022/07/29 10:26:03;;;;;;;7.72;3.10;;;;;;;31.66;42.41;100794.69;5076506;28;20040;-62
2022/07/29 10:28:32;;;;;;;12.10;3.92;;;;;;;31.67;42.36;100813.97;5076388;28;20027;-62
2022/07/29 10:31:05;;;;;;;11.88;3.53;;;;;;;31.66;42.11;100828.41;5076329;28;20075;-62
2022/07/29 10:34:09;;;;;;;6.68;2.85;;;;;;;31.64;42.20;100847.69;5076531;28;20391;-62
2022/07/29 10:37:31;;;;;;;11.98;2.40;;;;;;;31.58;41.61;100850.91;5076237;28;20033;-62
2022/07/29 10:43:36;;;;;;;7.47;2.83;;;;;;;31.77;38.38;100874.16;5073442;28;20548;-63
2022/07/29 10:46:03;;;;;;;8.10;2.00;;;;;;;31.82;37.94;100877.38;5076204;28;20070;-63
2022/07/29 10:48:29;;;;;;;6.35;2.13;;;;;;;31.80;37.02;100879.00;5075994;28;20090;-62
2022/07/29 10:51:03;;;;;;;6.60;1.65;;;;;;;31.79;35.73;100871.78;5076013;28;20025;-63
2022/07/29 10:53:50;;;;;;;8.52;2.03;;;;;;;31.73;35.65;100873.38;5075998;28;20028;-63
2022/07/29 10:56:35;;;;;;;4.20;1.63;;;;;;;31.69;35.47;100878.97;5074734;28;20560;-62
2022/07/29 10:59:20;;;;;;;6.80;1.50;;;;;;;31.67;35.60;100874.97;5075977;28;20041;-63
2022/07/29 11:01:50;;;;;;;15.65;1.92;;;;;;;31.64;35.36;100870.97;5076023;28;20040;-63
2022/07/29 11:04:43;;;;;;;34.97;3.22;;;;;;;31.63;35.35;100868.56;5075930;28;20028;-63
2022/07/29 11:07:11;;;;;;;5.85;1.65;;;;;;;31.60;35.00;100858.94;5075504;28;20399;-63
2022/07/29 11:09:38;;;;;;;5.05;1.40;;;;;;;31.60;34.44;100849.69;5075810;28;20170;-63
2022/07/29 11:12:37;;;;;;;5.13;1.77;;;;;;;31.49;34.05;100825.25;5075901;28;20119;-63
2022/07/29 11:15:18;;;;;;;5.55;1.40;;;;;;;31.61;33.85;100838.06;5073671;28;20121;-63
2022/07/29 11:18:04;;;;;;;3.78;1.10;;;;;;;31.65;33.13;100826.81;5075522;28;20099;-63
2022/07/29 11:20:41;;;;;;;9.98;1.55;;;;;;;31.61;32.97;100820.41;5075456;28;20166;-62
2022/07/29 11:23:29;;;;;;;4.63;1.35;;;;;;;31.61;32.51;100812.78;5074552;28;20059;-62
2022/07/29 11:26:24;;;;;;;3.00;1.20;;;;;;;31.67;32.37;100813.16;5075586;28;20039;-62
2022/07/29 11:28:57;;;;;;;3.35;1.20;;;;;;;31.62;32.58;100799.53;5075415;28;20043;-62
2022/07/29 11:31:45;;;;;;;16.67;1.83;;;;;;;31.61;32.12;100809.19;5075394;28;20214;-63
2022/07/29 11:34:36;;;;;;;8.05;1.50;;;;;;;31.58;32.05;100814.38;5074200;28;20060;-62
2022/07/29 11:37:09;;;;;;;5.32;1.38;;;;;;;31.62;31.46;100810.78;5075351;28;20102;-62
2022/07/29 11:39:38;;;;;;;10.75;1.70;;;;;;;31.65;31.70;100788.28;5075123;28;20387;-62
2022/07/29 11:42:16;;;;;;;8.25;2.10;;;;;;;31.78;31.21;100775.41;5075178;28;20029;-62